createdAt,value
2022-09-16T00:01:18.175Z,74.57
2022-09-16T00:03:46.579Z,75.02
2022-09-16T00:06:28.861Z,74.15
2022-09-16T00:09:03.001Z,74.35
2022-09-16T00:11:36.285Z,73.88
2022-09-16T00:14:05.539Z,74.11
2022-09-16T00:16:35.160Z,73.89
2022-09-16T00:19:03.430Z,74.31
2022-09-16T00:21:31.226Z,74.46
2022-09-16T00:23:58.641Z,74.18
2022-09-16T00:26:26.160Z,73.59
2022-09-16T00:28:54.263Z,73.77
2022-09-16T00:31:21.712Z,73.51
2022-09-16T00:33:49.005Z,72.97
2022-09-16T00:36:20.313Z,72.99
2022-09-16T00:38:53.381Z,72.81
2022-09-16T00:41:34.085Z,72.80
2022-09-16T00:44:51.526Z,72.64
2022-09-16T00:47:52.464Z,72.68
2022-09-16T00:50:54.409Z,73.24
2022-09-16T00:53:32.662Z,72.78
2022-09-16T00:56:05.269Z,72.48
2022-09-16T00:59:26.470Z,72.63
2022-09-16T01:01:58.529Z,72.62
2022-09-16T01:04:34.456Z,73.51
2022-09-16T01:07:02.303Z,73.58
2022-09-16T01:09:30.930Z,74.25
2022-09-16T01:11:58.457Z,73.47
2022-09-16T01:14:47.117Z,73.25
2022-09-16T01:18:21.630Z,73.84
2022-09-16T01:21:45.882Z,74.22
2022-09-16T01:24:54.508Z,74.24
2022-09-16T01:28:11.964Z,74.28
2022-09-16T01:30:57.937Z,74.28
2022-09-16T01:34:22.699Z,74.80
2022-09-16T01:37:39.891Z,74.44
2022-09-16T01:41:02.023Z,74.38
2022-09-16T01:43:57.909Z,74.41
2022-09-16T01:47:04.632Z,75.18
2022-09-16T01:50:13.460Z,73.92
2022-09-16T01:53:39.190Z,74.57
2022-09-16T01:56:44.505Z,74.47
2022-09-16T01:59:35.802Z,74.92
2022-09-16T02:03:11.730Z,74.37
2022-09-16T02:05:58.551Z,73.82
2022-09-16T02:08:57.332Z,74.83
2022-09-16T02:11:25.379Z,74.90
2022-09-16T02:14:09.351Z,75.36
2022-09-16T02:16:53.990Z,75.13
2022-09-16T02:19:38.104Z,75.14
2022-09-16T02:22:16.248Z,74.89
2022-09-16T02:24:48.945Z,74.47
2022-09-16T02:27:21.036Z,74.83
2022-09-16T02:30:14.280Z,74.66
2022-09-16T02:33:00.191Z,74.85
2022-09-16T02:35:29.572Z,74.65
2022-09-16T02:38:17.273Z,74.82
2022-09-16T02:40:59.508Z,73.94
2022-09-16T02:43:28.409Z,74.62
2022-09-16T02:46:41.180Z,74.35
2022-09-16T02:50:15.423Z,74.07
2022-09-16T02:53:15.147Z,73.78
2022-09-16T02:55:59.513Z,73.81
2022-09-16T02:58:26.963Z,73.67
2022-09-16T03:00:58.285Z,73.96
2022-09-16T03:03:25.928Z,74.47
2022-09-16T03:06:24.057Z,74.48
2022-09-16T03:08:58.360Z,74.96
2022-09-16T03:11:55.591Z,74.67
2022-09-16T03:15:15.797Z,75.41
2022-09-16T03:18:23.292Z,75.68
2022-09-16T03:22:02.040Z,75.28
2022-09-16T03:24:54.007Z,75.83
2022-09-16T03:27:38.421Z,76.14
2022-09-16T03:30:11.081Z,75.54
2022-09-16T03:32:56.629Z,75.28
2022-09-16T03:35:49.160Z,74.76
2022-09-16T03:38:19.643Z,74.96
2022-09-16T03:40:47.904Z,74.57
2022-09-16T03:43:17.784Z,75.01
2022-09-16T03:45:45.555Z,75.04
2022-09-16T03:48:14.061Z,75.63
2022-09-16T03:50:41.718Z,76.10
2022-09-16T03:53:09.005Z,75.20
2022-09-16T03:55:36.304Z,75.76
2022-09-16T03:58:04.689Z,76.17
2022-09-16T04:00:33.071Z,76.09
2022-09-16T04:03:01.400Z,76.31
2022-09-16T04:05:29.115Z,76.15
2022-09-16T04:07:56.679Z,76.43
2022-09-16T04:10:23.993Z,76.70
2022-09-16T04:12:52.190Z,76.41
2022-09-16T04:15:19.776Z,76.52
2022-09-16T04:17:47.037Z,76.34
2022-09-16T04:20:14.333Z,76.49
2022-09-16T04:22:42.619Z,76.41
2022-09-16T04:25:10.256Z,76.31
2022-09-16T04:27:37.991Z,75.85
2022-09-16T04:30:06.602Z,75.38
2022-09-16T04:32:33.871Z,75.45
2022-09-16T04:35:01.401Z,75.52
2022-09-16T04:37:31.659Z,75.41
2022-09-16T04:40:02.329Z,75.15
2022-09-16T04:42:31.927Z,74.69
2022-09-16T04:44:59.243Z,74.71
2022-09-16T04:47:26.497Z,74.36
2022-09-16T04:49:54.140Z,74.30
2022-09-16T04:52:21.392Z,74.34
2022-09-16T04:54:48.646Z,74.67
2022-09-16T04:57:16.049Z,74.36
2022-09-16T04:59:43.304Z,74.76
2022-09-16T05:02:10.579Z,73.90
2022-09-16T05:04:37.840Z,74.11
2022-09-16T05:07:05.210Z,74.30
2022-09-16T05:09:32.463Z,73.86
2022-09-16T05:12:00.530Z,73.66
2022-09-16T05:14:27.797Z,74.54
2022-09-16T05:16:55.080Z,74.47
2022-09-16T05:19:22.529Z,74.40
2022-09-16T05:21:49.825Z,74.68
2022-09-16T05:24:17.248Z,74.38
2022-09-16T05:26:44.821Z,74.28
2022-09-16T05:29:17.486Z,74.32
2022-09-16T05:31:49.197Z,73.96
2022-09-16T05:34:24.327Z,74.55
2022-09-16T05:36:53.977Z,74.90
2022-09-16T05:39:24.623Z,75.32
2022-09-16T05:42:00.074Z,74.66
2022-09-16T05:44:29.376Z,74.59
2022-09-16T05:46:56.784Z,74.46
2022-09-16T05:49:25.104Z,74.08
2022-09-16T05:51:53.683Z,74.02
2022-09-16T05:54:23.829Z,73.64
2022-09-16T05:56:51.611Z,73.32
2022-09-16T05:59:19.168Z,72.51
2022-09-16T06:01:46.878Z,71.08
2022-09-16T06:04:15.829Z,71.87
2022-09-16T06:06:46.826Z,71.86
2022-09-16T06:09:25.240Z,72.16
2022-09-16T06:11:59.418Z,72.09
2022-09-16T06:14:28.296Z,71.38
2022-09-16T06:16:55.850Z,70.87
2022-09-16T06:19:23.526Z,69.02
2022-09-16T06:21:50.819Z,70.12
2022-09-16T06:24:21.157Z,69.23
2022-09-16T06:26:49.856Z,69.53
2022-09-16T06:29:18.082Z,68.91
2022-09-16T06:31:48.080Z,69.40
2022-09-16T06:34:21.095Z,70.07
2022-09-16T06:36:48.384Z,69.00
2022-09-16T06:39:17.067Z,69.40
2022-09-16T06:41:44.868Z,69.20
2022-09-16T06:44:12.200Z,69.50
2022-09-16T06:46:39.712Z,69.27
2022-09-16T06:49:07.087Z,69.94
2022-09-16T06:51:35.826Z,71.78
2022-09-16T06:54:08.324Z,71.73
2022-09-16T06:56:37.668Z,72.88
2022-09-16T06:59:05.413Z,73.06
2022-09-16T07:01:34.793Z,73.48
2022-09-16T07:04:16.232Z,73.60
2022-09-16T07:07:08.207Z,73.42
2022-09-16T07:09:32.389Z,73.17
2022-09-16T07:12:00.403Z,72.64
2022-09-16T07:14:29.268Z,72.89
2022-09-16T07:16:56.583Z,72.63
2022-09-16T07:19:25.135Z,72.29
2022-09-16T07:21:52.546Z,72.59
2022-09-16T07:24:20.193Z,73.19
2022-09-16T07:26:47.719Z,72.45
2022-09-16T07:29:19.254Z,72.26
2022-09-16T07:31:46.772Z,72.64
2022-09-16T07:34:14.426Z,72.16
2022-09-16T07:36:50.342Z,71.96
2022-09-16T07:39:19.686Z,71.58
2022-09-16T07:41:48.779Z,71.39
2022-09-16T07:44:20.518Z,71.58
2022-09-16T07:46:50.920Z,71.29
2022-09-16T07:49:19.516Z,71.36
2022-09-16T07:51:47.251Z,70.64
2022-09-16T07:54:18.382Z,70.32
2022-09-16T07:56:46.109Z,70.97
2022-09-16T07:59:19.314Z,71.03
2022-09-16T08:01:50.005Z,70.45
2022-09-16T08:04:19.632Z,70.26
2022-09-16T08:06:47.305Z,69.66
2022-09-16T08:12:06.368Z,70.61
2022-09-16T08:14:34.054Z,70.47
2022-09-16T08:17:01.969Z,69.73
2022-09-16T08:19:29.379Z,69.32
2022-09-16T08:21:56.685Z,68.45
2022-09-16T08:24:26.878Z,68.81
2022-09-16T08:29:41.731Z,69.32
2022-09-16T08:32:09.084Z,68.44
2022-09-16T08:34:40.653Z,67.56
2022-09-16T08:37:08.070Z,68.35
2022-09-16T08:39:35.426Z,67.73
2022-09-16T08:43:04.937Z,68.14
2022-09-16T08:46:39.752Z,67.30
2022-09-16T08:49:45.723Z,66.93
2022-09-16T08:52:36.645Z,67.04
2022-09-16T08:55:35.311Z,67.32
2022-09-16T08:58:41.344Z,67.46
2022-09-16T09:01:53.480Z,67.34
2022-09-16T09:04:21.312Z,67.37
2022-09-16T09:07:43.776Z,66.87
2022-09-16T09:11:00.144Z,66.50
2022-09-16T09:14:21.102Z,66.48
2022-09-16T09:17:09.722Z,65.96
2022-09-16T09:20:31.217Z,65.56
2022-09-16T09:23:34.543Z,64.97
2022-09-16T09:26:48.327Z,63.81
2022-09-16T09:30:01.095Z,65.02
2022-09-16T09:33:41.583Z,65.11
2022-09-16T09:37:07.412Z,64.50
2022-09-16T09:40:42.896Z,64.66
2022-09-16T09:43:31.559Z,64.50
2022-09-16T09:46:27.746Z,64.78
2022-09-16T09:49:26.230Z,64.43
2022-09-16T09:52:16.850Z,63.72
2022-09-16T09:54:51.520Z,62.95
2022-09-16T09:57:40.726Z,62.30
2022-09-16T10:00:21.484Z,61.53
2022-09-16T10:02:50.048Z,60.35
2022-09-16T10:05:29.023Z,60.29
2022-09-16T10:08:23.360Z,60.89
2022-09-16T10:11:02.506Z,60.86
2022-09-16T10:13:31.259Z,60.02
2022-09-16T10:16:20.709Z,59.05
2022-09-16T10:19:21.684Z,58.40
2022-09-16T10:22:21.510Z,59.16
2022-09-16T10:25:00.578Z,57.45
2022-09-16T10:27:38.223Z,57.39
2022-09-16T10:33:42.774Z,54.69
2022-09-16T10:36:20.000Z,55.74
2022-09-16T10:39:04.629Z,56.42
2022-09-16T10:41:47.301Z,56.64
2022-09-16T10:44:30.408Z,56.49
2022-09-16T10:47:14.324Z,56.44
2022-09-16T10:49:58.889Z,56.59
2022-09-16T10:52:49.378Z,57.30
2022-09-16T10:55:43.157Z,58.16
2022-09-16T10:58:19.548Z,58.66
2022-09-16T11:01:34.491Z,58.76
2022-09-16T11:04:41.164Z,58.12
2022-09-16T11:07:44.001Z,57.74
2022-09-16T11:10:24.382Z,57.16
2022-09-16T11:13:26.863Z,56.48
2022-09-16T11:16:35.284Z,55.46
2022-09-16T11:19:20.700Z,54.63
2022-09-16T11:22:17.393Z,55.45
2022-09-16T11:25:38.028Z,55.92
2022-09-16T11:29:14.148Z,56.85
2022-09-16T11:32:24.481Z,55.73
2022-09-16T11:36:03.934Z,56.10
2022-09-16T11:39:11.185Z,56.47
2022-09-16T11:41:55.862Z,57.04
2022-09-16T11:45:16.903Z,55.90
2022-09-16T11:48:23.618Z,55.29
2022-09-16T11:52:05.212Z,55.15
2022-09-16T11:55:24.105Z,55.35
2022-09-16T11:58:22.361Z,54.80
2022-09-16T12:00:52.498Z,55.01
2022-09-16T12:03:58.804Z,53.88
2022-09-16T12:06:41.906Z,48.75
2022-09-16T12:09:30.013Z,48.50
2022-09-16T12:12:32.678Z,47.71
2022-09-16T12:15:31.614Z,47.99
2022-09-16T12:18:35.328Z,48.18
2022-09-16T12:21:48.621Z,49.76
2022-09-16T12:25:03.608Z,50.12
2022-09-16T12:27:54.049Z,50.61
2022-09-16T12:30:30.363Z,49.44
2022-09-16T12:33:33.033Z,50.10
2022-09-16T12:36:16.322Z,49.66
2022-09-16T12:38:45.277Z,50.34
2022-09-16T12:41:55.522Z,51.19
2022-09-16T12:45:30.206Z,54.18
2022-09-16T12:48:49.864Z,54.53
2022-09-16T12:52:02.144Z,53.24
2022-09-16T12:55:26.521Z,53.78
2022-09-16T12:58:46.645Z,53.88
2022-09-16T13:02:00.064Z,54.13
2022-09-16T13:04:58.813Z,55.35
2022-09-16T13:07:34.868Z,55.81
2022-09-16T13:10:58.395Z,53.96
2022-09-16T13:13:47.992Z,54.80
2022-09-16T13:16:26.537Z,54.21
2022-09-16T13:19:48.079Z,54.97
2022-09-16T13:22:40.681Z,55.81
2022-09-16T13:25:44.730Z,55.55
2022-09-16T13:28:32.805Z,56.25
2022-09-16T13:31:12.567Z,56.19
2022-09-16T13:33:57.955Z,57.58
2022-09-16T13:36:25.475Z,57.95
2022-09-16T13:38:59.357Z,59.10
2022-09-16T13:41:38.860Z,59.37
2022-09-16T13:44:36.803Z,59.62
2022-09-16T13:47:34.334Z,58.83
2022-09-16T13:50:17.568Z,60.54
2022-09-16T13:52:44.876Z,60.11
2022-09-16T13:55:26.890Z,59.78
2022-09-16T13:58:22.092Z,58.61
2022-09-16T14:01:36.994Z,56.99
2022-09-16T14:05:23.952Z,56.44
2022-09-16T14:08:53.484Z,54.29
2022-09-16T14:12:08.807Z,51.97
2022-09-16T14:14:46.842Z,50.88
2022-09-16T14:17:48.986Z,49.66
2022-09-16T14:20:24.113Z,49.92
2022-09-16T14:23:17.892Z,51.73
2022-09-16T14:25:45.368Z,50.74
2022-09-16T14:28:29.620Z,51.15
2022-09-16T14:31:06.716Z,50.64
2022-09-16T14:33:57.364Z,49.93
2022-09-16T14:36:38.718Z,49.31
2022-09-16T14:39:08.929Z,49.01
2022-09-16T14:41:58.976Z,48.60
2022-09-16T14:44:51.120Z,50.18
2022-09-16T14:47:52.786Z,50.47
2022-09-16T14:50:32.469Z,51.62
2022-09-16T14:53:08.553Z,52.21
2022-09-16T14:55:40.078Z,52.27
2022-09-16T14:58:10.813Z,53.70
2022-09-16T15:00:59.016Z,54.33
2022-09-16T15:04:06.209Z,56.10
2022-09-16T15:06:45.221Z,57.78
2022-09-16T15:10:32.686Z,59.13
2022-09-16T15:13:15.461Z,62.05
2022-09-16T15:16:07.381Z,62.60
2022-09-16T15:19:05.530Z,63.76
2022-09-16T15:21:38.079Z,62.82
2022-09-16T15:24:17.758Z,63.59
2022-09-16T15:26:46.809Z,62.83
2022-09-16T15:29:22.934Z,63.24
2022-09-16T15:31:51.612Z,64.29
2022-09-16T15:34:22.710Z,62.55
2022-09-16T15:36:58.928Z,65.28
2022-09-16T15:39:39.143Z,65.17
2022-09-16T15:42:23.703Z,62.96
2022-09-16T15:45:03.268Z,63.44
2022-09-16T15:47:53.151Z,64.43
2022-09-16T15:50:22.192Z,63.71
2022-09-16T15:53:16.937Z,65.90
2022-09-16T15:56:33.091Z,63.08
2022-09-16T15:59:30.157Z,65.16
2022-09-16T16:02:02.476Z,63.39
2022-09-16T16:04:34.740Z,62.85
2022-09-16T16:07:06.111Z,62.61
2022-09-16T16:09:43.017Z,62.52
2022-09-16T16:12:17.075Z,59.52
2022-09-16T16:14:46.546Z,62.33
2022-09-16T16:17:25.780Z,62.66
2022-09-16T16:19:56.051Z,64.18
2022-09-16T16:22:24.216Z,65.09
2022-09-16T16:24:51.787Z,66.08
2022-09-16T16:27:19.847Z,60.96
2022-09-16T16:29:47.324Z,62.53
2022-09-16T16:32:16.796Z,62.95
2022-09-16T16:34:50.202Z,63.06
2022-09-16T16:37:44.430Z,62.94
2022-09-16T16:40:08.784Z,64.63
2022-09-16T16:42:36.425Z,65.78
2022-09-16T16:45:05.104Z,64.49
2022-09-16T16:47:32.417Z,63.97
2022-09-16T16:50:02.213Z,63.74
2022-09-16T16:52:30.021Z,64.82
2022-09-16T16:54:57.694Z,66.21
2022-09-16T16:57:25.244Z,66.46
2022-09-16T16:59:52.689Z,67.20
2022-09-16T17:02:20.195Z,63.03
2022-09-16T17:04:47.768Z,64.75
2022-09-16T17:07:25.845Z,65.59
2022-09-16T17:09:55.589Z,64.98
2022-09-16T17:12:22.898Z,63.08
2022-09-16T17:14:50.397Z,64.39
2022-09-16T17:17:17.669Z,64.26
2022-09-16T17:19:45.104Z,64.14
2022-09-16T17:22:12.602Z,63.73
2022-09-16T17:24:39.899Z,63.68
2022-09-16T17:27:07.373Z,63.82
2022-09-16T17:29:34.843Z,63.50
2022-09-16T17:32:03.280Z,63.85
2022-09-16T17:34:31.286Z,62.43
2022-09-16T17:36:59.267Z,63.20
2022-09-16T17:39:26.761Z,63.15
2022-09-16T17:41:57.481Z,62.75
2022-09-16T17:44:24.886Z,62.48
2022-09-16T17:46:52.579Z,62.45
2022-09-16T17:49:25.001Z,63.73
2022-09-16T17:51:53.672Z,63.86
2022-09-16T17:54:22.222Z,61.61
2022-09-16T17:56:52.770Z,62.74
2022-09-16T17:59:20.152Z,61.96
2022-09-16T18:01:47.743Z,62.19
2022-09-16T18:04:16.233Z,57.47
2022-09-16T18:06:47.036Z,58.19
2022-09-16T18:09:16.497Z,59.31
2022-09-16T18:11:44.930Z,60.71
2022-09-16T18:14:17.269Z,61.28
2022-09-16T18:16:47.822Z,61.65
2022-09-16T18:19:15.165Z,59.96
2022-09-16T18:21:42.460Z,58.45
2022-09-16T18:24:13.173Z,58.88
2022-09-16T18:26:42.253Z,58.43
2022-09-16T18:29:13.089Z,57.51
2022-09-16T18:31:49.131Z,58.17
2022-09-16T18:34:17.840Z,58.45
2022-09-16T18:36:46.015Z,58.12
2022-09-16T18:39:17.223Z,58.54
2022-09-16T18:41:46.120Z,57.70
2022-09-16T18:44:26.357Z,57.92
2022-09-16T18:46:54.205Z,57.85
2022-09-16T18:49:27.054Z,58.19
2022-09-16T18:51:54.815Z,58.29
2022-09-16T18:54:29.000Z,59.03
2022-09-16T18:57:01.844Z,59.84
2022-09-16T18:59:37.807Z,59.91
2022-09-16T19:02:08.493Z,60.77
2022-09-16T19:04:42.992Z,60.67
2022-09-16T19:07:14.788Z,60.69
2022-09-16T19:09:42.472Z,60.26
2022-09-16T19:12:13.151Z,60.52
2022-09-16T19:14:41.186Z,60.41
2022-09-16T19:17:14.556Z,61.22
2022-09-16T19:19:42.072Z,60.57
2022-09-16T19:22:10.027Z,60.62
2022-09-16T19:24:38.360Z,60.73
2022-09-16T19:27:05.927Z,60.57
2022-09-16T19:29:33.516Z,60.61
2022-09-16T19:32:01.271Z,60.80
2022-09-16T19:34:28.785Z,60.83
2022-09-16T19:36:56.506Z,61.20
2022-09-16T19:39:24.714Z,61.59
2022-09-16T19:41:52.219Z,62.04
2022-09-16T19:44:20.100Z,62.17
2022-09-16T19:46:49.269Z,61.99
2022-09-16T19:49:22.802Z,61.59
2022-09-16T19:51:53.196Z,61.90
2022-09-16T19:54:23.965Z,62.46
2022-09-16T19:56:51.645Z,61.93
2022-09-16T19:59:20.535Z,62.37
2022-09-16T20:01:48.358Z,62.42
2022-09-16T20:04:19.842Z,63.41
2022-09-16T20:06:47.887Z,63.42
2022-09-16T20:09:15.673Z,64.06
2022-09-16T20:11:47.327Z,63.54
2022-09-16T20:14:20.520Z,62.94
2022-09-16T20:16:50.404Z,63.86
2022-09-16T20:19:20.206Z,62.95
2022-09-16T20:21:47.691Z,63.11
2022-09-16T20:24:23.129Z,63.66
2022-09-16T20:26:54.160Z,62.82
2022-09-16T20:29:21.953Z,62.84
2022-09-16T20:31:52.847Z,63.02
2022-09-16T20:34:22.927Z,62.70
2022-09-16T20:36:50.777Z,62.63
2022-09-16T20:39:19.115Z,63.35
2022-09-16T20:41:49.819Z,63.73
2022-09-16T20:44:17.431Z,64.43
2022-09-16T20:46:44.882Z,64.87
2022-09-16T20:49:17.689Z,65.36
2022-09-16T20:51:45.969Z,66.27
2022-09-16T20:54:15.584Z,67.62
2022-09-16T20:56:48.495Z,68.33
2022-09-16T20:59:20.253Z,67.59
2022-09-16T21:01:49.265Z,67.64
2022-09-16T21:04:20.669Z,68.16
2022-09-16T21:06:48.312Z,67.97
2022-09-16T21:09:16.793Z,68.61
2022-09-16T21:11:45.135Z,68.25
2022-09-16T21:14:18.020Z,68.57
2022-09-16T21:16:46.955Z,69.09
2022-09-16T21:19:15.247Z,68.54
2022-09-16T21:21:46.396Z,67.91
2022-09-16T21:24:14.212Z,68.12
2022-09-16T21:26:43.863Z,67.66
2022-09-16T21:29:18.788Z,67.84
2022-09-16T21:31:46.534Z,67.64
2022-09-16T21:34:20.712Z,67.28
2022-09-16T21:36:49.703Z,68.84
2022-09-16T21:39:20.432Z,67.43
2022-09-16T21:41:48.955Z,67.02
2022-09-16T21:44:17.253Z,67.39
2022-09-16T21:46:47.645Z,67.53
2022-09-16T21:49:28.954Z,67.77
2022-09-16T21:51:58.923Z,67.86
2022-09-16T21:54:28.011Z,68.16
2022-09-16T21:56:55.301Z,68.46
2022-09-16T21:59:24.997Z,67.59
2022-09-16T22:01:52.516Z,67.65
2022-09-16T22:04:25.246Z,68.00
2022-09-16T22:06:55.527Z,68.84
2022-09-16T22:09:23.573Z,68.09
2022-09-16T22:11:51.917Z,67.95
2022-09-16T22:14:19.666Z,67.82
2022-09-16T22:16:46.968Z,67.74
2022-09-16T22:19:19.754Z,67.68
2022-09-16T22:21:51.476Z,67.23
2022-09-16T22:24:22.033Z,67.54
2022-09-16T22:26:51.897Z,67.64
2022-09-16T22:29:19.705Z,67.16
2022-09-16T22:31:47.325Z,68.13
2022-09-16T22:34:14.752Z,68.37
2022-09-16T22:36:42.120Z,67.81
2022-09-16T22:39:17.785Z,67.79
2022-09-16T22:41:45.106Z,68.13
2022-09-16T22:44:14.103Z,68.40
2022-09-16T22:46:48.110Z,67.94
2022-09-16T22:49:16.469Z,68.54
2022-09-16T22:51:44.370Z,67.96
2022-09-16T22:54:13.982Z,68.40
2022-09-16T22:56:43.363Z,68.50
2022-09-16T22:59:20.770Z,67.58
2022-09-16T23:01:49.079Z,67.63
2022-09-16T23:04:17.393Z,67.26
2022-09-16T23:06:44.946Z,67.51
2022-09-16T23:09:14.608Z,67.03
2022-09-16T23:11:42.269Z,67.01
2022-09-16T23:14:21.658Z,66.09
2022-09-16T23:16:49.116Z,66.00
2022-09-16T23:19:16.861Z,65.93
2022-09-16T23:21:44.434Z,66.25
2022-09-16T23:24:21.845Z,65.86
2022-09-16T23:26:50.156Z,65.56
2022-09-16T23:29:18.392Z,65.56
2022-09-16T23:31:46.213Z,66.08
2022-09-16T23:34:22.148Z,66.06
2022-09-16T23:36:50.048Z,65.84
2022-09-16T23:39:18.192Z,66.46
2022-09-16T23:41:47.185Z,66.46
2022-09-16T23:44:16.609Z,65.97
2022-09-16T23:46:44.847Z,65.46
2022-09-16T23:49:13.618Z,66.14
2022-09-16T23:51:41.140Z,65.47
2022-09-16T23:54:08.516Z,65.41
2022-09-16T23:56:35.865Z,65.59
2022-09-16T23:59:03.223Z,65.08
